Time;durP1;ratioP1;P1;durP2;ratioP2;P2;SDS_P1;SDS_P2;PMS_P1;PMS_P2;Temp;Humidity;BMP_temperature;BMP_pressure;BME280_temperature;BME280_humidity;BME280_pressure;Samples;Min_cycle;Max_cycle;Signal;HPM_P1;HPM_P2
2022/12/15 00:40:09;;;;;;;12.85;5.95;;;-1.90;99.90;;;;;;5119416;27;20110;-61
2022/12/15 00:42:34;;;;;;;14.45;6.03;;;-1.90;99.90;;;;;;5110186;27;20405;-61
2022/12/15 00:45:00;;;;;;;12.38;6.30;;;-2.00;99.90;;;;;;5127371;27;20035;-61
2022/12/15 00:47:26;;;;;;;10.35;6.30;;;-2.00;99.90;;;;;;5128452;27;20031;-61
2022/12/15 01:20:18;;;;;;;7.15;5.07;;;-2.30;99.90;;;;;;5102283;28;20505;-61
2022/12/15 01:22:49;;;;;;;7.40;3.20;;;-2.30;99.90;;;;;;5121550;27;20122;-61
2022/12/15 01:25:17;;;;;;;7.68;3.80;;;-2.30;99.90;;;;;;5107081;28;20027;-61
2022/12/15 01:27:43;;;;;;;6.18;3.58;;;-2.30;99.90;;;;;;5106111;28;20043;-61
2022/12/15 01:30:12;;;;;;;8.88;4.22;;;-2.20;99.90;;;;;;5107145;28;20082;-61
2022/12/15 01:32:41;;;;;;;7.82;5.30;;;-2.20;99.90;;;;;;5088910;28;20136;-61
2022/12/15 01:35:10;;;;;;;9.45;5.22;;;-2.30;99.90;;;;;;5093100;27;20039;-61
2022/12/15 01:37:36;;;;;;;10.68;5.00;;;-2.30;99.90;;;;;;5116457;27;20047;-61
2022/12/15 01:42:50;;;;;;;6.28;3.42;;;-2.40;99.90;;;;;;5071818;28;20074;-61
2022/12/15 01:45:28;;;;;;;11.90;4.85;;;-2.40;99.90;;;;;;5082145;28;20479;-61
2022/12/15 01:48:11;;;;;;;11.77;4.78;;;-2.40;99.90;;;;;;5066870;28;20040;-61
2022/12/15 01:50:51;;;;;;;7.53;3.88;;;-2.40;99.90;;;;;;5065668;28;20044;-61
2022/12/15 01:53:17;;;;;;;9.45;5.20;;;-2.40;99.90;;;;;;5065681;28;20040;-62
2022/12/15 01:55:48;;;;;;;9.40;4.55;;;-2.30;99.90;;;;;;5066018;28;20518;-61
2022/12/15 01:58:17;;;;;;;6.45;3.42;;;-2.30;99.90;;;;;;5064229;28;20486;-61
2022/12/15 02:00:43;;;;;;;10.07;4.53;;;-2.30;99.90;;;;;;5066195;28;20461;-61
2022/12/15 02:03:12;;;;;;;9.70;3.50;;;-2.30;99.90;;;;;;5085663;28;20040;-61
2022/12/15 02:05:42;;;;;;;7.97;4.63;;;-2.30;99.90;;;;;;5068579;28;20048;-61
2022/12/15 02:08:08;;;;;;;11.63;5.07;;;-2.30;99.90;;;;;;5064876;28;20399;-61
2022/12/15 02:11:11;;;;;;;12.60;4.40;;;-2.30;99.90;;;;;;5077982;28;20078;-61
2022/12/15 02:14:00;;;;;;;3.85;2.33;;;-2.30;99.90;;;;;;5060362;28;20066;-61
2022/12/15 02:16:45;;;;;;;11.25;4.65;;;-2.30;99.90;;;;;;5065661;28;20056;-61
2022/12/15 02:19:44;;;;;;;6.35;3.95;;;-2.20;99.90;;;;;;5065602;28;20074;-61
2022/12/15 02:22:52;;;;;;;8.68;3.53;;;-2.30;99.90;;;;;;5066309;28;20075;-61
2022/12/15 02:25:32;;;;;;;9.10;3.10;;;-2.30;99.90;;;;;;5057855;28;20052;-61
2022/12/15 02:28:12;;;;;;;7.18;3.75;;;-2.30;99.90;;;;;;5065554;28;20040;-61
2022/12/15 02:34:15;;;;;;;12.82;4.85;;;-2.40;99.90;;;;;;5003854;28;20058;-61
2022/12/15 02:36:45;;;;;;;10.50;5.18;;;-2.40;99.90;;;;;;5064904;28;20860;-61
2022/12/15 02:39:12;;;;;;;10.38;5.55;;;-2.50;99.90;;;;;;5065915;28;20044;-61
2022/12/15 02:41:41;;;;;;;12.95;5.30;;;-2.50;99.90;;;;;;5107889;28;20054;-61
2022/12/15 02:44:17;;;;;;;11.07;5.60;;;-2.60;99.90;;;;;;5115473;28;20090;-61
2022/12/15 02:47:13;;;;;;;10.63;5.50;;;-2.60;99.90;;;;;;5108316;28;20071;-61
2022/12/15 02:50:02;;;;;;;13.15;5.57;;;-2.70;99.90;;;;;;5125796;28;20050;-61
2022/12/15 02:52:46;;;;;;;13.05;5.15;;;-2.70;99.90;;;;;;5106392;28;20062;-61
2022/12/15 02:55:19;;;;;;;8.85;4.85;;;-2.80;99.90;;;;;;5109043;28;20497;-61
2022/12/15 02:58:30;;;;;;;12.15;5.30;;;-2.80;99.90;;;;;;5117634;27;20087;-61
2022/12/15 03:01:21;;;;;;;8.70;4.75;;;-2.90;99.90;;;;;;5047276;27;20142;-61
2022/12/15 03:03:48;;;;;;;7.65;4.57;;;-2.90;99.90;;;;;;5124759;27;20048;-61
2022/12/15 03:06:15;;;;;;;7.80;4.25;;;-2.90;99.90;;;;;;5109800;28;20082;-61
2022/12/15 03:08:41;;;;;;;9.45;5.03;;;-2.90;99.90;;;;;;5114382;27;20036;-61
2022/12/15 03:11:06;;;;;;;8.30;4.57;;;-2.90;99.90;;;;;;5123941;27;20028;-61
2022/12/15 03:13:32;;;;;;;13.23;4.00;;;-2.90;99.90;;;;;;5091605;28;20126;-61
2022/12/15 03:15:59;;;;;;;9.60;3.67;;;-2.90;99.90;;;;;;5109141;28;20051;-61
2022/12/15 03:18:25;;;;;;;10.35;4.82;;;-3.00;99.90;;;;;;5111358;27;20237;-61
2022/12/15 03:20:52;;;;;;;10.15;4.10;;;-2.90;99.90;;;;;;5108915;28;20079;-61
2022/12/15 03:23:18;;;;;;;13.45;3.85;;;-2.90;99.90;;;;;;5110308;28;20071;-61
2022/12/15 03:25:47;;;;;;;9.75;3.53;;;-2.90;99.90;;;;;;5109561;28;20090;-61
2022/12/15 03:28:13;;;;;;;6.88;3.00;;;-2.80;99.90;;;;;;5109364;27;20039;-62
2022/12/15 03:30:40;;;;;;;8.00;3.25;;;-2.70;99.90;;;;;;5084509;27;20179;-61
2022/12/15 03:33:05;;;;;;;9.52;3.55;;;-2.60;99.90;;;;;;5123511;27;20140;-61
2022/12/15 03:35:32;;;;;;;8.40;3.53;;;-2.60;99.90;;;;;;5091402;28;20051;-61
2022/12/15 03:37:58;;;;;;;8.98;3.40;;;-2.50;99.90;;;;;;5089743;28;20043;-61
2022/12/15 03:40:24;;;;;;;8.50;3.40;;;-2.60;99.90;;;;;;5110635;27;20054;-61
2022/12/15 03:42:50;;;;;;;9.10;3.70;;;-2.60;99.90;;;;;;5108704;28;20097;-61
2022/12/15 03:45:21;;;;;;;9.50;3.58;;;-2.50;99.90;;;;;;5108834;28;20046;-61
2022/12/15 03:47:48;;;;;;;6.00;3.38;;;-2.50;99.90;;;;;;5091082;28;20044;-61
2022/12/15 03:50:17;;;;;;;8.95;3.55;;;-2.60;99.90;;;;;;5108898;28;20039;-61
2022/12/15 03:52:43;;;;;;;9.32;3.28;;;-2.50;99.90;;;;;;5126888;27;20124;-61
2022/12/15 03:55:10;;;;;;;10.00;4.10;;;-2.60;99.90;;;;;;5110936;27;20098;-61
2022/12/15 03:57:35;;;;;;;7.95;3.45;;;-2.60;99.90;;;;;;5109224;28;20576;-61
2022/12/15 04:00:03;;;;;;;5.82;2.25;;;-2.60;99.90;;;;;;5108207;28;20040;-61
2022/12/15 04:02:29;;;;;;;9.32;2.90;;;-2.60;99.90;;;;;;5120894;27;20500;-61
2022/12/15 04:04:54;;;;;;;9.27;2.95;;;-2.50;99.90;;;;;;5114198;27;20048;-61
2022/12/15 04:07:20;;;;;;;5.25;3.20;;;-2.40;99.90;;;;;;5114257;27;20038;-61
2022/12/15 04:09:46;;;;;;;7.45;3.25;;;-2.40;99.90;;;;;;5106713;27;20579;-61
2022/12/15 04:12:12;;;;;;;7.47;3.30;;;-2.50;99.90;;;;;;5113619;27;20046;-61
2022/12/15 04:14:41;;;;;;;3.67;2.90;;;-2.50;99.90;;;;;;5109231;28;20047;-61
2022/12/15 04:17:10;;;;;;;8.68;2.15;;;-2.60;99.90;;;;;;5108061;28;20225;-61
2022/12/15 04:22:22;;;;;;;5.05;2.75;;;-2.70;99.90;;;;;;5110027;27;20039;-61
2022/12/15 05:33:36;;;;;;;10.93;4.88;;;-3.10;99.90;;;;;;5106906;28;20048;-62
2022/12/15 05:36:03;;;;;;;10.32;4.43;;;-3.10;99.90;;;;;;5093634;27;20039;-61
2022/12/15 05:38:28;;;;;;;13.80;5.20;;;-3.10;99.90;;;;;;5120225;27;20075;-61
2022/12/15 05:40:59;;;;;;;12.68;4.80;;;-3.10;99.90;;;;;;5107217;28;20142;-61
2022/12/15 05:43:25;;;;;;;;;;;-3.00;99.90;;;;;;5107162;28;20120;-62
2022/12/15 05:45:50;;;;;;;9.07;5.05;;;-2.90;99.90;;;;;;5107423;28;20220;-61
2022/12/15 05:48:17;;;;;;;9.32;4.97;;;-2.80;99.90;;;;;;5107569;27;20039;-61
2022/12/15 05:50:43;;;;;;;14.55;5.28;;;-2.80;99.90;;;;;;5106061;28;20055;-61
2022/12/15 05:53:09;;;;;;;14.88;6.95;;;-2.70;99.90;;;;;;5106294;28;20035;-61
2022/12/15 05:55:34;;;;;;;7.60;4.00;;;-2.60;99.90;;;;;;5106429;28;20050;-61
2022/12/15 05:58:00;;;;;;;12.75;5.25;;;-2.60;99.90;;;;;;5107920;28;20505;-61
2022/12/15 06:00:27;;;;;;;9.27;5.32;;;-2.60;99.90;;;;;;5105919;28;20062;-61
2022/12/15 06:02:53;;;;;;;9.85;4.18;;;-2.50;99.90;;;;;;5107569;27;20079;-61
2022/12/15 06:05:18;;;;;;;6.15;4.25;;;-2.50;99.90;;;;;;5105892;28;20117;-61
2022/12/15 06:07:44;;;;;;;4.03;2.55;;;-2.50;99.90;;;;;;5107814;28;20531;-61
2022/12/15 06:10:10;;;;;;;12.73;5.28;;;-2.50;99.90;;;;;;5117936;27;20370;-61
2022/12/15 06:12:36;;;;;;;11.43;5.30;;;-2.50;99.90;;;;;;5108841;27;20043;-61
2022/12/15 06:15:03;;;;;;;11.25;4.65;;;-2.50;99.90;;;;;;5106809;28;20383;-61
2022/12/15 06:17:29;;;;;;;15.25;5.43;;;-2.50;99.90;;;;;;5110560;28;20370;-61
2022/12/15 06:19:55;;;;;;;18.83;5.68;;;-2.50;99.90;;;;;;5122804;27;20100;-61
2022/12/15 06:22:21;;;;;;;6.10;2.90;;;-2.50;99.90;;;;;;5111982;27;20048;-61
2022/12/15 06:24:46;;;;;;;10.55;4.80;;;-2.40;99.90;;;;;;5117289;27;20100;-61
2022/12/15 06:27:12;;;;;;;13.23;5.35;;;-2.40;99.90;;;;;;5105704;28;20501;-61
2022/12/15 06:29:38;;;;;;;3.80;3.03;;;-2.30;99.90;;;;;;5110131;27;20043;-61
2022/12/15 06:32:05;;;;;;;7.28;2.78;;;-2.20;99.90;;;;;;5113925;27;20161;-61
2022/12/15 06:34:31;;;;;;;8.88;4.65;;;-2.10;99.90;;;;;;5104381;27;20047;-61
2022/12/15 06:36:57;;;;;;;7.15;4.38;;;-2.10;99.90;;;;;;5131731;27;20047;-61
2022/12/15 06:39:22;;;;;;;13.07;3.97;;;-2.00;99.90;;;;;;5132680;27;20096;-61
2022/12/15 06:41:48;;;;;;;7.25;4.10;;;-2.00;99.90;;;;;;5094771;28;20495;-61
2022/12/15 06:44:15;;;;;;;7.40;3.85;;;-2.00;99.90;;;;;;5093831;28;20058;-61
2022/12/15 06:46:41;;;;;;;4.40;2.42;;;-2.00;99.90;;;;;;5112573;27;20591;-61
2022/12/15 06:49:08;;;;;;;13.00;3.55;;;-2.00;99.90;;;;;;5112577;27;20482;-61
2022/12/15 06:51:33;;;;;;;3.72;2.60;;;-2.00;99.90;;;;;;5112572;28;20039;-61
2022/12/15 06:54:02;;;;;;;11.07;3.97;;;-1.90;99.90;;;;;;5116399;27;20374;-61
2022/12/15 06:56:30;;;;;;;8.45;4.38;;;-1.90;99.90;;;;;;5131789;27;20050;-61
2022/12/15 06:58:57;;;;;;;8.20;3.17;;;-1.80;99.90;;;;;;5113908;28;20050;-61
2022/12/15 07:01:24;;;;;;;7.22;3.85;;;-1.70;99.90;;;;;;5090240;27;20051;-61
2022/12/15 07:03:51;;;;;;;10.38;4.15;;;-1.70;99.90;;;;;;5128003;27;20121;-61
2022/12/15 07:06:17;;;;;;;7.18;3.65;;;-1.70;99.90;;;;;;5112334;28;20082;-61
2022/12/15 07:08:51;;;;;;;8.75;4.05;;;-1.60;99.90;;;;;;5112096;28;20100;-59
2022/12/15 07:11:17;;;;;;;9.68;4.05;;;-1.60;99.90;;;;;;5119459;27;20043;-59
2022/12/15 07:13:43;;;;;;;7.97;2.95;;;-1.60;99.90;;;;;;5120118;27;20374;-58
2022/12/15 07:16:10;;;;;;;11.45;3.58;;;-1.60;99.90;;;;;;5094439;28;20034;-58
2022/12/15 07:18:35;;;;;;;10.07;2.30;;;-1.50;99.90;;;;;;5111847;28;20644;-60
2022/12/15 07:21:07;;;;;;;6.82;2.33;;;-1.40;99.90;;;;;;5113076;27;20050;-61
2022/12/15 07:23:34;;;;;;;10.50;3.90;;;-1.40;99.90;;;;;;5093863;28;20128;-61
2022/12/15 07:26:09;;;;;;;10.43;3.53;;;-1.40;99.90;;;;;;5112094;27;20043;-61
2022/12/15 07:28:36;;;;;;;11.13;3.45;;;-1.40;99.90;;;;;;5112061;28;20047;-61
2022/12/15 07:31:04;;;;;;;6.38;3.22;;;-1.50;99.90;;;;;;5113356;27;20381;-61
2022/12/15 07:33:32;;;;;;;8.23;3.53;;;-1.50;99.90;;;;;;5094364;27;20513;-60
2022/12/15 07:35:59;;;;;;;9.00;3.60;;;-1.50;99.90;;;;;;5124187;27;20040;-60
2022/12/15 07:38:26;;;;;;;10.90;3.20;;;-1.50;99.90;;;;;;5118691;27;20068;-60
2022/12/15 07:40:52;;;;;;;8.20;2.30;;;-1.60;99.90;;;;;;5087121;28;20441;-60
2022/12/15 07:43:18;;;;;;;6.93;2.95;;;-1.60;99.90;;;;;;5102176;28;20036;-60
2022/12/15 07:45:44;;;;;;;5.75;2.22;;;-1.60;99.90;;;;;;5097080;28;20040;-60
2022/12/15 07:48:11;;;;;;;8.65;3.30;;;-1.50;99.90;;;;;;5102921;28;20053;-60
2022/12/15 07:50:39;;;;;;;4.45;2.47;;;-1.50;99.90;;;;;;5095736;28;20059;-60
2022/12/15 07:53:05;;;;;;;4.28;2.22;;;-1.40;99.90;;;;;;5092481;28;20646;-60
2022/12/15 07:55:31;;;;;;;12.10;2.92;;;-1.40;99.90;;;;;;5109025;28;20039;-60
2022/12/15 07:57:57;;;;;;;12.60;2.88;;;-1.40;99.90;;;;;;5108974;28;20035;-60
2022/12/15 08:00:22;;;;;;;6.35;2.45;;;-1.30;99.90;;;;;;5106373;28;20776;-60
2022/12/15 08:02:48;;;;;;;5.00;2.25;;;-1.20;99.90;;;;;;5107383;28;20039;-60
2022/12/15 08:05:14;;;;;;;7.95;3.03;;;-1.10;99.90;;;;;;5090031;28;20502;-61
2022/12/15 08:07:40;;;;;;;9.05;1.90;;;-1.00;99.90;;;;;;5103971;28;20043;-60
2022/12/15 08:10:06;;;;;;;5.15;2.83;;;-1.00;99.90;;;;;;5101169;28;20044;-60
2022/12/15 08:12:31;;;;;;;15.02;3.45;;;-0.90;99.90;;;;;;5104877;28;20112;-60
2022/12/15 08:14:57;;;;;;;11.73;3.55;;;-0.90;99.90;;;;;;5103229;28;20490;-60
2022/12/15 08:17:23;;;;;;;7.97;3.58;;;-0.80;99.90;;;;;;5088135;28;20044;-61
2022/12/15 08:19:48;;;;;;;7.55;2.42;;;-0.80;99.90;;;;;;5102160;28;20165;-60
2022/12/15 08:22:14;;;;;;;8.23;3.08;;;-0.70;99.90;;;;;;5108312;28;20533;-60
2022/12/15 08:24:40;;;;;;;9.23;3.30;;;-0.70;99.90;;;;;;5108084;28;20036;-61
2022/12/15 08:27:07;;;;;;;5.50;1.80;;;-0.70;99.90;;;;;;5107444;28;20451;-60
2022/12/15 08:29:33;;;;;;;5.30;2.47;;;-0.70;99.90;;;;;;5099891;28;20489;-60
2022/12/15 08:32:00;;;;;;;9.93;4.13;;;-0.70;99.90;;;;;;5087001;28;20050;-60
2022/12/15 08:34:26;;;;;;;7.57;3.40;;;-0.70;99.90;;;;;;5100010;28;20040;-60
2022/12/15 08:36:54;;;;;;;10.95;4.15;;;-0.80;99.90;;;;;;5089234;28;20040;-60
2022/12/15 08:39:20;;;;;;;11.48;3.75;;;-0.90;99.90;;;;;;5088636;28;20067;-60
2022/12/15 08:41:46;;;;;;;10.32;3.47;;;-0.90;99.90;;;;;;5091484;28;20052;-60
2022/12/15 08:44:12;;;;;;;10.35;3.78;;;-1.00;99.90;;;;;;5098975;28;20043;-60
2022/12/15 08:46:38;;;;;;;13.35;5.15;;;-1.00;99.90;;;;;;5107645;28;20089;-60
2022/12/15 08:49:05;;;;;;;9.60;4.03;;;-0.90;99.90;;;;;;5106016;28;20055;-61
2022/12/15 08:51:31;;;;;;;3.22;1.65;;;-0.90;99.90;;;;;;5102384;28;20039;-60
2022/12/15 08:53:58;;;;;;;6.47;3.60;;;-0.80;99.90;;;;;;5096675;28;20040;-60
2022/12/15 08:56:26;;;;;;;9.18;4.05;;;-0.80;99.90;;;;;;5107574;28;20156;-60
2022/12/15 08:59:00;;;;;;;13.85;4.60;;;-0.70;99.90;;;;;;5098526;27;20478;-60
2022/12/15 09:01:30;;;;;;;7.53;4.57;;;-0.70;99.90;;;;;;5094352;28;20060;-60
2022/12/15 09:03:58;;;;;;;9.35;4.70;;;-0.70;99.90;;;;;;5101561;28;20554;-61
2022/12/15 09:06:31;;;;;;;8.93;4.35;;;-0.70;99.90;;;;;;5100410;28;20516;-60
2022/12/15 09:09:03;;;;;;;5.22;3.22;;;-0.70;99.90;;;;;;5090196;28;20100;-61
2022/12/15 09:11:29;;;;;;;7.93;3.90;;;-0.70;99.90;;;;;;5098693;28;20493;-60
2022/12/15 09:13:56;;;;;;;3.35;2.85;;;-0.70;99.90;;;;;;5086698;28;20482;-60
2022/12/15 09:16:22;;;;;;;11.55;4.05;;;-0.70;99.90;;;;;;5085490;28;20058;-60
2022/12/15 09:18:51;;;;;;;9.27;4.53;;;-0.60;99.90;;;;;;5089439;28;20043;-61
2022/12/15 09:21:21;;;;;;;13.55;4.40;;;-0.60;99.90;;;;;;5099237;28;20035;-61
2022/12/15 09:23:50;;;;;;;11.07;3.20;;;-0.50;99.90;;;;;;5099754;28;20073;-61
2022/12/15 09:26:17;;;;;;;11.25;4.38;;;-0.50;99.90;;;;;;5102237;28;20416;-60
2022/12/15 09:28:43;;;;;;;5.35;2.97;;;-0.50;99.90;;;;;;5100210;28;20075;-60
2022/12/15 09:31:22;;;;;;;6.82;3.47;;;-0.50;99.90;;;;;;5082241;28;20505;-60
2022/12/15 09:33:52;;;;;;;13.55;4.65;;;-0.50;99.90;;;;;;5089829;28;20044;-60
2022/12/15 09:36:18;;;;;;;9.25;4.70;;;-0.40;99.90;;;;;;5092359;28;20082;-61
2022/12/15 09:38:44;;;;;;;7.97;3.42;;;-0.40;99.90;;;;;;5087469;28;20133;-61
2022/12/15 09:41:13;;;;;;;8.43;3.95;;;-0.40;99.90;;;;;;5104221;27;20137;-60
2022/12/15 09:43:45;;;;;;;11.80;4.55;;;-0.40;99.90;;;;;;5109742;27;20048;-60
2022/12/15 09:46:50;;;;;;;8.02;3.85;;;-0.40;99.90;;;;;;5122003;27;20047;-61
2022/12/15 09:49:37;;;;;;;9.70;3.97;;;-0.30;99.90;;;;;;5113862;27;20126;-60
2022/12/15 09:52:10;;;;;;;9.00;3.95;;;-0.30;99.90;;;;;;5114703;27;20121;-60
2022/12/15 09:54:36;;;;;;;8.85;4.40;;;-0.30;99.90;;;;;;5106614;27;20191;-61
2022/12/15 09:57:13;;;;;;;13.45;4.75;;;-0.20;99.90;;;;;;5123870;27;20589;-60
2022/12/15 10:00:00;;;;;;;10.07;5.15;;;-0.20;99.90;;;;;;5126147;27;20035;-61
2022/12/15 10:03:03;;;;;;;6.47;3.53;;;-0.10;99.90;;;;;;5113888;27;20050;-61
2022/12/15 10:05:38;;;;;;;6.68;4.70;;;0.00;99.90;;;;;;5125456;27;20043;-61
2022/12/15 10:08:04;;;;;;;12.05;4.78;;;0.00;99.90;;;;;;5124402;27;20463;-61
2022/12/15 10:10:41;;;;;;;13.13;3.90;;;0.10;99.90;;;;;;5106854;27;20306;-61
2022/12/15 10:13:22;;;;;;;9.35;5.28;;;0.20;99.90;;;;;;5123006;27;20039;-61
2022/12/15 10:15:57;;;;;;;11.35;4.28;;;0.20;99.90;;;;;;5104858;27;20507;-61
2022/12/15 10:18:36;;;;;;;11.95;5.03;;;0.20;99.90;;;;;;5107880;27;20432;-61
2022/12/15 10:21:02;;;;;;;10.32;3.28;;;0.30;99.90;;;;;;5126693;27;20514;-61
2022/12/15 10:23:27;;;;;;;14.25;4.57;;;0.30;99.90;;;;;;5125019;27;20492;-61
2022/12/15 10:26:24;;;;;;;13.48;4.85;;;0.40;99.90;;;;;;5106330;28;20058;-61
2022/12/15 10:28:59;;;;;;;11.98;4.53;;;0.50;99.90;;;;;;5112417;28;20062;-61
2022/12/15 10:31:50;;;;;;;11.45;4.85;;;0.50;99.90;;;;;;5121650;28;20603;-62
2022/12/15 10:34:24;;;;;;;9.73;4.53;;;0.50;99.90;;;;;;5114318;28;20043;-62
2022/12/15 10:36:51;;;;;;;15.73;5.50;;;0.60;99.90;;;;;;5110116;28;20091;-62
2022/12/15 10:39:18;;;;;;;10.77;4.30;;;0.60;99.90;;;;;;5109225;28;20663;-61
2022/12/15 10:41:44;;;;;;;8.90;3.92;;;0.70;99.90;;;;;;5115531;28;20467;-62
2022/12/15 10:44:35;;;;;;;17.27;5.47;;;0.80;99.90;;;;;;5111618;28;20096;-61
2022/12/15 10:47:15;;;;;;;10.77;5.05;;;0.80;99.90;;;;;;5108582;28;20438;-61
2022/12/15 10:49:41;;;;;;;6.60;3.30;;;0.90;99.90;;;;;;5118312;28;20467;-61
2022/12/15 10:52:17;;;;;;;7.85;5.03;;;0.90;99.90;;;;;;5088540;28;20127;-62
2022/12/15 10:54:46;;;;;;;7.30;3.03;;;1.00;99.90;;;;;;5114979;28;20065;-62
2022/12/15 10:57:26;;;;;;;6.32;4.35;;;1.00;99.90;;;;;;5108238;28;20504;-62
2022/12/15 11:00:17;;;;;;;8.52;4.72;;;1.10;99.90;;;;;;5110530;28;20126;-62
2022/12/15 11:02:43;;;;;;;8.63;4.57;;;1.10;99.90;;;;;;5100139;28;20112;-62
2022/12/15 11:05:14;;;;;;;11.82;4.38;;;1.20;99.90;;;;;;5094575;28;20520;-61
2022/12/15 11:07:46;;;;;;;12.68;4.78;;;1.20;99.90;;;;;;5114181;28;20065;-62
2022/12/15 11:10:19;;;;;;;9.13;4.05;;;1.30;99.90;;;;;;5096492;28;20120;-61
2022/12/15 11:13:09;;;;;;;15.43;5.25;;;1.30;99.90;;;;;;5110065;28;20677;-61
2022/12/15 11:15:40;;;;;;;13.80;5.63;;;1.40;99.90;;;;;;5097246;28;20525;-62
2022/12/15 11:18:27;;;;;;;15.77;5.25;;;1.40;99.90;;;;;;5108749;28;20070;-62
2022/12/15 11:21:35;;;;;;;10.23;4.93;;;1.50;99.90;;;;;;5114004;27;20081;-62
2022/12/15 11:24:30;;;;;;;6.60;3.63;;;1.50;99.90;;;;;;5024322;28;20049;-62
2022/12/15 11:27:17;;;;;;;10.45;4.60;;;1.50;99.90;;;;;;4987824;28;20057;-62
2022/12/15 11:30:11;;;;;;;8.48;4.60;;;1.60;99.90;;;;;;5098537;27;20076;-62
2022/12/15 11:32:43;;;;;;;8.43;4.38;;;1.60;99.90;;;;;;5105978;27;20054;-62
2022/12/15 11:35:40;;;;;;;17.48;3.92;;;1.60;99.90;;;;;;5103151;27;20462;-62
2022/12/15 11:38:24;;;;;;;8.70;4.15;;;1.60;99.90;;;;;;5111344;27;20172;-62
2022/12/15 11:40:53;;;;;;;12.43;3.97;;;1.70;99.90;;;;;;5112906;27;20074;-62
2022/12/15 11:43:32;;;;;;;4.30;2.53;;;1.70;99.90;;;;;;5099756;27;20031;-62
2022/12/15 11:46:17;;;;;;;9.00;4.40;;;1.70;99.90;;;;;;5102688;27;20043;-62
2022/12/15 11:49:15;;;;;;;10.38;4.18;;;1.70;99.90;;;;;;5115019;27;20051;-62
2022/12/15 11:52:04;;;;;;;8.88;4.25;;;1.70;99.90;;;;;;5120008;27;20047;-62
2022/12/15 11:54:42;;;;;;;10.10;4.23;;;1.80;99.90;;;;;;5051026;27;20062;-62
2022/12/15 11:57:17;;;;;;;11.38;4.00;;;1.80;99.90;;;;;;5115822;27;20044;-62
2022/12/15 11:59:51;;;;;;;8.98;3.53;;;1.90;99.90;;;;;;5124542;27;20047;-62
2022/12/15 12:02:39;;;;;;;9.90;3.58;;;1.90;99.90;;;;;;5100647;27;20119;-62
2022/12/15 12:05:34;;;;;;;8.05;3.45;;;1.90;99.90;;;;;;5114716;27;20074;-62
2022/12/15 12:08:18;;;;;;;5.93;2.75;;;1.90;99.90;;;;;;5117133;27;20043;-61
2022/12/15 12:10:54;;;;;;;12.85;4.00;;;2.00;99.90;;;;;;5122591;27;20079;-62
2022/12/15 12:13:35;;;;;;;5.28;2.25;;;2.00;99.90;;;;;;5108520;28;20043;-62
2022/12/15 12:16:34;;;;;;;6.55;3.38;;;2.00;99.90;;;;;;5106880;28;20047;-62
2022/12/15 12:19:22;;;;;;;8.73;4.13;;;2.10;99.90;;;;;;5108552;28;20043;-62
2022/12/15 12:21:52;;;;;;;6.53;2.13;;;2.10;99.90;;;;;;5110683;27;20636;-61
2022/12/15 12:24:42;;;;;;;2.85;2.25;;;2.20;99.90;;;;;;5111948;27;20051;-61
2022/12/15 12:27:23;;;;;;;9.57;3.72;;;2.20;99.90;;;;;;5107667;28;20097;-62
2022/12/15 12:29:56;;;;;;;8.52;4.13;;;2.30;99.90;;;;;;5107604;27;20044;-62
2022/12/15 12:32:41;;;;;;;14.05;3.70;;;2.30;99.90;;;;;;5097091;28;20148;-61
2022/12/15 12:35:20;;;;;;;9.52;3.65;;;2.30;99.90;;;;;;5108876;27;20122;-62
2022/12/15 12:37:55;;;;;;;8.70;3.60;;;2.40;99.90;;;;;;5107821;27;20102;-62
2022/12/15 12:40:39;;;;;;;8.23;4.00;;;2.40;99.90;;;;;;5109296;27;20063;-62
2022/12/15 12:43:31;;;;;;;6.65;3.30;;;2.40;99.90;;;;;;5094535;27;20058;-62
2022/12/15 12:46:02;;;;;;;16.58;4.45;;;2.50;99.90;;;;;;5088415;28;20504;-62
2022/12/15 12:48:40;;;;;;;2.30;1.52;;;2.40;99.90;;;;;;5098322;27;20082;-62
2022/12/15 12:51:24;;;;;;;4.72;2.83;;;2.50;99.90;;;;;;5112976;27;20077;-62
2022/12/15 12:53:51;;;;;;;8.48;3.80;;;2.50;99.90;;;;;;5108080;27;20044;-62
2022/12/15 12:56:32;;;;;;;9.57;2.47;;;2.50;99.90;;;;;;5108653;27;20110;-62
2022/12/15 12:58:58;;;;;;;9.25;4.30;;;2.60;99.90;;;;;;5107955;27;20114;-62
2022/12/15 13:01:32;;;;;;;10.00;3.58;;;2.60;99.90;;;;;;5107385;27;20130;-62
2022/12/15 13:04:10;;;;;;;12.95;3.85;;;2.60;99.90;;;;;;5115474;27;20201;-62
2022/12/15 13:06:39;;;;;;;13.82;3.72;;;2.70;99.90;;;;;;5075893;27;20442;-62
2022/12/15 13:09:17;;;;;;;1.77;1.67;;;2.80;99.90;;;;;;5118327;27;20054;-63
2022/12/15 13:11:54;;;;;;;20.88;4.32;;;2.80;99.90;;;;;;5106676;28;20051;-62
2022/12/15 13:14:43;;;;;;;12.85;4.55;;;2.70;99.90;;;;;;5106811;28;20047;-62
2022/12/15 13:17:18;;;;;;;13.18;3.53;;;2.80;99.90;;;;;;5106525;28;20104;-62
2022/12/15 13:19:55;;;;;;;12.65;4.10;;;2.80;99.90;;;;;;5108131;27;20049;-62
2022/12/15 13:22:33;;;;;;;11.13;3.63;;;2.70;99.90;;;;;;5127438;27;20043;-62
2022/12/15 13:25:00;;;;;;;9.65;3.20;;;2.70;99.90;;;;;;5119224;27;20421;-62
2022/12/15 13:27:36;;;;;;;12.93;4.20;;;2.70;99.90;;;;;;5107383;27;20043;-62
2022/12/15 13:30:08;;;;;;;7.78;3.20;;;2.60;99.90;;;;;;5109278;27;20055;-62
2022/12/15 13:32:40;;;;;;;12.73;3.92;;;2.60;99.90;;;;;;5110552;27;20048;-62
2022/12/15 13:35:12;;;;;;;4.13;2.13;;;2.70;99.90;;;;;;5113403;27;20741;-62
2022/12/15 13:37:57;;;;;;;12.35;4.03;;;2.70;99.90;;;;;;5112164;27;20078;-62
2022/12/15 13:40:35;;;;;;;7.35;3.10;;;2.80;99.90;;;;;;5111152;27;20054;-62
2022/12/15 13:43:04;;;;;;;12.25;4.50;;;2.80;99.90;;;;;;5112291;27;20486;-62
2022/12/15 13:45:52;;;;;;;8.48;3.50;;;2.80;99.90;;;;;;5112419;27;20039;-62
2022/12/15 13:48:41;;;;;;;11.18;3.42;;;2.80;99.90;;;;;;5113656;27;20043;-62
2022/12/15 13:51:25;;;;;;;10.15;4.35;;;2.80;99.90;;;;;;5112300;27;20078;-62
2022/12/15 13:54:17;;;;;;;9.23;4.10;;;2.90;99.90;;;;;;5107254;27;20076;-62
2022/12/15 13:56:44;;;;;;;8.30;3.25;;;3.00;99.90;;;;;;5121332;27;20073;-62
2022/12/15 13:59:30;;;;;;;3.53;1.60;;;3.00;99.90;;;;;;5104670;27;20102;-62
2022/12/15 14:01:59;;;;;;;6.60;2.92;;;3.00;99.90;;;;;;5110974;27;20036;-62
2022/12/15 14:04:25;;;;;;;9.63;3.50;;;3.00;99.90;;;;;;5120166;27;20093;-62
2022/12/15 14:06:57;;;;;;;6.85;2.67;;;2.90;99.90;;;;;;5112947;27;20520;-61
2022/12/15 14:09:35;;;;;;;6.13;3.08;;;2.90;99.90;;;;;;5081021;28;20118;-62
2022/12/15 14:12:06;;;;;;;12.32;3.60;;;2.80;99.90;;;;;;5107299;27;20039;-62
2022/12/15 14:14:35;;;;;;;9.98;5.43;;;2.70;99.90;;;;;;5120551;27;20836;-61
2022/12/15 14:17:12;;;;;;;24.60;7.20;;;2.60;99.90;;;;;;5117122;27;20061;-61
2022/12/15 14:19:43;;;;;;;8.38;3.70;;;2.60;99.90;;;;;;5114992;27;20589;-62
2022/12/15 14:22:27;;;;;;;8.82;3.40;;;2.60;99.90;;;;;;5117656;28;20124;-61
2022/12/15 14:25:18;;;;;;;9.05;4.35;;;2.50;99.90;;;;;;5115198;27;20049;-61
2022/12/15 14:27:44;;;;;;;11.95;5.30;;;2.50;99.90;;;;;;5126191;27;20058;-62
2022/12/15 14:30:12;;;;;;;14.43;5.05;;;2.40;99.90;;;;;;5125227;28;20019;-61
2022/12/15 14:32:39;;;;;;;16.08;4.60;;;2.40;99.90;;;;;;5112472;28;20596;-62
2022/12/15 14:35:13;;;;;;;11.38;4.50;;;2.40;99.90;;;;;;5112266;28;20058;-61
2022/12/15 14:37:39;;;;;;;16.42;4.25;;;2.40;99.90;;;;;;5107911;28;20119;-61
2022/12/15 14:40:11;;;;;;;16.02;4.15;;;2.40;99.90;;;;;;5123699;28;20125;-61
2022/12/15 14:42:38;;;;;;;14.32;4.88;;;2.40;99.90;;;;;;5112457;28;20063;-61
2022/12/15 14:45:04;;;;;;;11.10;4.95;;;2.30;99.90;;;;;;5110360;28;20509;-61
2022/12/15 14:47:34;;;;;;;7.07;3.65;;;2.30;99.90;;;;;;5117833;28;20398;-61
2022/12/15 14:50:02;;;;;;;13.38;3.92;;;2.30;99.90;;;;;;5098517;27;20047;-61
2022/12/15 14:52:34;;;;;;;12.13;4.18;;;2.20;99.90;;;;;;5109414;27;20039;-61
2022/12/15 14:55:03;;;;;;;9.18;4.47;;;2.30;99.90;;;;;;5108450;27;20063;-61
2022/12/15 14:57:44;;;;;;;17.25;4.40;;;2.20;99.90;;;;;;5109749;27;20040;-61
2022/12/15 15:00:23;;;;;;;;;;;2.20;99.90;;;;;;5092225;27;20096;-61
2022/12/15 15:02:49;;;;;;;16.20;4.22;;;2.20;99.90;;;;;;5125028;27;19919;-61
2022/12/15 15:05:26;;;;;;;11.35;4.30;;;2.20;99.90;;;;;;5109511;27;20051;-61
2022/12/15 15:07:56;;;;;;;7.78;4.03;;;2.20;99.90;;;;;;5116077;27;20589;-61
2022/12/15 15:10:27;;;;;;;5.18;2.75;;;2.20;99.90;;;;;;5114115;27;20047;-61
2022/12/15 15:12:53;;;;;;;10.50;4.38;;;2.10;99.90;;;;;;5118124;27;20039;-61
2022/12/15 15:15:25;;;;;;;11.18;4.30;;;2.10;99.90;;;;;;5112914;27;20049;-61
2022/12/15 15:17:55;;;;;;;11.35;4.55;;;2.00;99.90;;;;;;5098818;27;20035;-61
2022/12/15 15:20:25;;;;;;;9.27;5.07;;;2.00;99.90;;;;;;5120672;27;20035;-61
2022/12/15 15:23:06;;;;;;;10.32;5.57;;;1.90;99.90;;;;;;5130031;27;20031;-61
2022/12/15 15:25:36;;;;;;;13.73;5.68;;;1.90;99.90;;;;;;5128167;27;20097;-61
2022/12/15 15:28:17;;;;;;;16.00;6.28;;;1.80;99.90;;;;;;5124260;27;20024;-61
2022/12/15 15:30:51;;;;;;;21.75;7.18;;;1.80;99.90;;;;;;5122750;27;20051;-61
2022/12/15 15:33:18;;;;;;;17.48;5.80;;;1.70;99.90;;;;;;5115871;27;20043;-61
2022/12/15 15:35:51;;;;;;;14.52;6.25;;;1.70;99.90;;;;;;5126418;27;20043;-61
2022/12/15 15:38:19;;;;;;;14.45;6.57;;;1.70;99.90;;;;;;5116487;27;20043;-61
2022/12/15 15:40:56;;;;;;;18.13;6.00;;;1.60;99.90;;;;;;5096815;28;20038;-61
2022/12/15 15:43:24;;;;;;;14.07;5.82;;;1.60;99.90;;;;;;5114223;27;20119;-61